Time;durP1;ratioP1;P1;durP2;ratioP2;P2;SDS_P1;SDS_P2;PMS_P1;PMS_P2;Temp;Humidity;BMP_temperature;BMP_pressure;BME280_temperature;BME280_humidity;BME280_pressure;Samples;Min_cycle;Max_cycle;Signal;HPM_P1;HPM_P2
2024/02/21 00:01:59;;;;;;;34.67;25.77;;;;;;;6.44;100.00;100972.41;1487191;87;21493;-79
2024/02/21 00:04:26;;;;;;;33.37;25.00;;;;;;;6.45;100.00;100970.64;1483685;87;22247;-81
2024/02/21 00:06:53;;;;;;;37.00;25.73;;;;;;;6.42;100.00;100969.55;1482914;87;21360;-80
2024/02/21 00:09:20;;;;;;;37.70;27.10;;;;;;;6.37;100.00;100969.02;1484743;87;21382;-80
2024/02/21 00:11:47;;;;;;;37.20;26.93;;;;;;;6.35;100.00;100966.96;1484716;88;21463;-81
2024/02/21 00:14:14;;;;;;;35.13;24.83;;;;;;;6.31;100.00;100968.49;1480794;87;21396;-80
2024/02/21 00:16:41;;;;;;;34.97;25.30;;;;;;;6.30;100.00;100976.47;1479909;87;21337;-79
2024/02/21 00:19:09;;;;;;;37.57;25.67;;;;;;;6.30;100.00;100977.78;1477505;87;21308;-80
2024/02/21 00:21:36;;;;;;;33.57;24.20;;;;;;;6.27;100.00;100974.92;1485247;87;21456;-80
2024/02/21 00:24:03;;;;;;;32.63;24.90;;;;;;;6.25;100.00;100973.34;1482055;87;21455;-79
2024/02/21 00:26:30;;;;;;;32.90;24.77;;;;;;;6.21;100.00;100972.69;1480693;87;21537;-80
2024/02/21 00:28:57;;;;;;;31.93;24.80;;;;;;;6.21;100.00;100967.44;1484890;87;21389;-80
2024/02/21 00:31:24;;;;;;;37.43;27.00;;;;;;;6.19;100.00;100966.72;1478378;88;22231;-79
2024/02/21 00:33:51;;;;;;;35.10;26.80;;;;;;;6.21;100.00;100970.54;1479919;87;22322;-79
2024/02/21 00:36:18;;;;;;;31.73;24.43;;;;;;;6.20;100.00;100963.61;1479488;87;21382;-79
2024/02/21 00:38:45;;;;;;;31.10;24.40;;;;;;;6.19;100.00;100968.03;1481386;87;21404;-79
2024/02/21 00:41:12;;;;;;;29.97;23.10;;;;;;;6.14;100.00;100958.31;1485004;87;21338;-79
2024/02/21 00:43:39;;;;;;;33.43;23.13;;;;;;;6.04;100.00;100959.88;1476165;87;21404;-79
2024/02/21 00:46:07;;;;;;;31.00;23.37;;;;;;;5.95;100.00;100954.78;1478104;87;21493;-80
2024/02/21 00:48:34;;;;;;;28.57;22.03;;;;;;;5.85;100.00;100958.48;1483184;87;21565;-80
2024/02/21 00:51:02;;;;;;;33.20;24.07;;;;;;;5.76;100.00;100961.73;1477889;87;21346;-80
2024/02/21 00:53:29;;;;;;;34.60;26.70;;;;;;;5.74;100.00;100956.22;1480807;87;21381;-79
2024/02/21 00:55:56;;;;;;;31.43;25.03;;;;;;;5.72;100.00;100947.11;1476042;87;21589;-80
2024/02/21 00:58:23;;;;;;;30.23;23.60;;;;;;;5.70;100.00;100946.40;1488487;87;21559;-80
2024/02/21 01:00:50;;;;;;;37.23;27.47;;;;;;;5.64;100.00;100946.81;1479760;87;21530;-81
2024/02/21 01:03:17;;;;;;;43.90;30.27;;;;;;;5.55;100.00;100948.72;1486549;87;22454;-80
2024/02/21 01:05:45;;;;;;;40.53;29.37;;;;;;;5.50;100.00;100945.11;1480103;87;21504;-80
2024/02/21 01:08:12;;;;;;;39.00;29.73;;;;;;;5.46;100.00;100940.98;1479320;87;22035;-80
2024/02/21 01:10:39;;;;;;;40.60;29.27;;;;;;;5.41;100.00;100941.31;1482356;87;22948;-80
2024/02/21 01:13:07;;;;;;;42.17;29.60;;;;;;;5.38;100.00;100944.14;1484244;88;21360;-80
2024/02/21 01:15:34;;;;;;;47.10;32.40;;;;;;;5.32;100.00;100941.92;1481004;87;21544;-80
2024/02/21 01:18:02;;;;;;;49.40;33.10;;;;;;;5.25;100.00;100943.25;1479668;87;22557;-80
2024/02/21 01:20:29;;;;;;;52.93;33.00;;;;;;;5.22;100.00;100944.77;1465844;88;21360;-79
2024/02/21 01:22:56;;;;;;;50.07;33.73;;;;;;;5.18;100.00;100941.98;1484375;87;21426;-79
2024/02/21 01:25:23;;;;;;;54.07;36.00;;;;;;;5.16;100.00;100955.67;1469458;88;21478;-80
2024/02/21 01:27:51;;;;;;;46.07;32.33;;;;;;;5.16;100.00;100955.20;1479281;87;21367;-79
2024/02/21 01:30:18;;;;;;;53.17;35.80;;;;;;;5.17;100.00;100950.30;1480670;87;21359;-80
2024/02/21 01:32:45;;;;;;;51.50;34.20;;;;;;;5.20;100.00;100951.89;1478743;87;21545;-80
2024/02/21 01:35:12;;;;;;;48.43;33.67;;;;;;;5.22;100.00;100938.20;1481535;87;21959;-80
2024/02/21 01:37:39;;;;;;;50.67;34.37;;;;;;;5.24;100.00;100938.95;1478389;88;22232;-80
2024/02/21 01:40:09;;;;;;;48.47;33.73;;;;;;;5.25;100.00;100931.45;1483791;87;21338;-79
2024/02/21 01:42:40;;;;;;;51.70;35.07;;;;;;;5.24;100.00;100928.94;1480389;88;21412;-78
2024/02/21 01:45:08;;;;;;;47.00;33.20;;;;;;;5.25;100.00;100921.42;1486350;87;21732;-80
2024/02/21 01:47:37;;;;;;;54.30;35.33;;;;;;;5.25;100.00;100915.70;1485456;87;22463;-80
2024/02/21 01:50:05;;;;;;;47.60;33.73;;;;;;;5.25;100.00;100918.80;1486520;88;21523;-80
2024/02/21 01:52:34;;;;;;;47.33;33.40;;;;;;;5.24;100.00;100916.65;1480267;87;21463;-80
2024/02/21 01:55:01;;;;;;;49.03;34.23;;;;;;;5.23;100.00;100916.26;1478090;87;21487;-80
2024/02/21 01:57:29;;;;;;;49.70;35.53;;;;;;;5.22;100.00;100909.34;1483536;88;21427;-79
2024/02/21 01:59:56;;;;;;;46.43;32.90;;;;;;;5.19;100.00;100906.92;1482423;88;21411;-79
2024/02/21 02:02:24;;;;;;;51.10;35.57;;;;;;;5.16;100.00;100903.19;1481279;87;21374;-78
2024/02/21 02:04:52;;;;;;;49.57;36.30;;;;;;;5.15;100.00;100896.23;1484981;87;22381;-80
2024/02/21 02:07:19;;;;;;;47.97;34.63;;;;;;;5.13;100.00;100892.42;1479308;87;22225;-80
2024/02/21 02:09:46;;;;;;;51.13;34.90;;;;;;;5.13;100.00;100894.21;1474397;87;21382;-80
2024/02/21 02:12:14;;;;;;;53.70;36.33;;;;;;;5.13;100.00;100898.14;1485141;87;21404;-80
2024/02/21 02:14:41;;;;;;;52.73;35.73;;;;;;;5.15;100.00;100902.80;1482275;87;21442;-80
2024/02/21 02:17:09;;;;;;;52.17;37.00;;;;;;;5.14;100.00;100903.28;1490383;87;21656;-80
2024/02/21 02:19:37;;;;;;;52.47;35.17;;;;;;;5.14;100.00;100900.66;1483615;87;22056;-80
2024/02/21 02:22:09;;;;;;;55.13;36.93;;;;;;;5.14;100.00;100899.81;1479379;87;21598;-80
2024/02/21 02:24:37;;;;;;;58.50;36.13;;;;;;;5.09;100.00;100904.52;1479854;87;21434;-80
2024/02/21 02:27:04;;;;;;;59.37;39.73;;;;;;;5.03;100.00;100909.70;1482046;87;21411;-80
2024/02/21 02:29:33;;;;;;;52.60;36.93;;;;;;;4.99;100.00;100910.84;1484432;88;21730;-81
2024/02/21 02:32:00;;;;;;;57.27;38.27;;;;;;;5.00;100.00;100907.75;1470275;88;21507;-81
2024/02/21 02:34:27;;;;;;;54.17;37.07;;;;;;;4.97;100.00;100907.47;1484204;87;21353;-80
2024/02/21 02:36:54;;;;;;;54.10;38.27;;;;;;;4.96;100.00;100906.64;1483124;87;21397;-80
2024/02/21 02:39:21;;;;;;;50.57;35.93;;;;;;;4.94;100.00;100911.61;1479217;87;21360;-80
2024/02/21 02:41:48;;;;;;;51.60;37.87;;;;;;;4.93;100.00;100912.56;1485401;87;21418;-80
2024/02/21 02:44:16;;;;;;;50.50;35.33;;;;;;;4.91;100.00;100916.58;1482070;87;21733;-79
2024/02/21 02:46:43;;;;;;;51.83;35.17;;;;;;;4.89;100.00;100917.17;1481864;88;21360;-79
2024/02/21 02:49:10;;;;;;;54.00;38.40;;;;;;;4.86;100.00;100927.87;1484784;87;21337;-81
2024/02/21 02:51:43;;;;;;;46.83;33.63;;;;;;;4.86;100.00;100922.63;1478782;87;21367;-79
2024/02/21 02:54:11;;;;;;;49.57;35.27;;;;;;;4.87;100.00;100920.83;1485516;87;21382;-79
2024/02/21 02:56:38;;;;;;;49.40;35.30;;;;;;;4.87;100.00;100916.42;1474486;87;21427;-77
2024/02/21 02:59:05;;;;;;;50.43;35.90;;;;;;;4.87;100.00;100917.73;1479644;87;21426;-79
2024/02/21 03:01:35;;;;;;;49.87;35.00;;;;;;;4.88;100.00;100919.41;1483705;87;22181;-79
2024/02/21 03:04:02;;;;;;;53.70;35.83;;;;;;;4.89;100.00;100916.31;1404174;87;21323;-78
2024/02/21 03:06:29;;;;;;;49.93;33.90;;;;;;;4.89;100.00;100918.48;1433244;87;21308;-79
2024/02/21 03:08:57;;;;;;;48.43;35.20;;;;;;;4.90;100.00;100918.84;1481364;87;21449;-79
2024/02/21 03:11:28;;;;;;;52.43;34.97;;;;;;;4.89;100.00;100921.11;1483360;87;21382;-79
2024/02/21 03:13:52;;;;;;;53.27;39.03;;;;;;;4.90;100.00;100918.84;1469413;88;21493;-79
2024/02/21 03:16:20;;;;;;;53.40;34.43;;;;;;;4.90;100.00;100921.47;1478266;87;21492;-79
2024/02/21 03:18:47;;;;;;;55.13;36.77;;;;;;;4.89;100.00;100922.86;1481981;88;22371;-78
2024/02/21 03:21:14;;;;;;;50.00;34.63;;;;;;;4.88;100.00;100924.66;1486755;87;21434;-79
2024/02/21 03:23:41;;;;;;;53.73;37.90;;;;;;;4.91;100.00;100924.92;1483939;87;21413;-79
2024/02/21 03:26:08;;;;;;;54.20;36.37;;;;;;;4.94;100.00;100929.50;1478537;87;21352;-79
2024/02/21 03:28:36;;;;;;;52.00;35.90;;;;;;;4.97;100.00;100925.84;1486175;87;21366;-79
2024/02/21 03:31:03;;;;;;;51.87;34.90;;;;;;;5.00;100.00;100931.36;1482641;88;21367;-79
2024/02/21 03:33:30;;;;;;;53.60;37.97;;;;;;;5.03;100.00;100933.78;1481355;88;21389;-77
2024/02/21 03:35:57;;;;;;;52.43;34.80;;;;;;;5.00;100.00;100932.20;1487156;87;21426;-79
2024/02/21 03:38:25;;;;;;;53.40;34.13;;;;;;;4.97;100.00;100937.17;1485076;87;21330;-79
2024/02/21 03:40:52;;;;;;;53.07;35.57;;;;;;;4.94;100.00;100933.44;1481573;87;21375;-79
2024/02/21 03:43:19;;;;;;;55.43;37.23;;;;;;;4.92;100.00;100928.78;1471881;88;22453;-80
2024/02/21 03:45:46;;;;;;;54.80;36.53;;;;;;;4.91;100.00;100936.73;1479787;87;21345;-79
2024/02/21 03:48:13;;;;;;;55.63;35.53;;;;;;;4.89;100.00;100938.16;1484601;87;21324;-79
2024/02/21 03:50:41;;;;;;;59.37;39.33;;;;;;;4.86;100.00;100934.42;1482024;87;21346;-79
2024/02/21 03:53:08;;;;;;;54.10;36.73;;;;;;;4.84;100.00;100933.67;1484098;88;22350;-79
2024/02/21 03:55:35;;;;;;;55.03;37.30;;;;;;;4.84;100.00;100935.45;1478084;87;21368;-80
2024/02/21 03:58:03;;;;;;;56.43;37.07;;;;;;;4.81;100.00;100931.25;1484384;88;21286;-80
2024/02/21 04:00:30;;;;;;;55.20;36.37;;;;;;;4.74;100.00;100932.09;1485924;87;22350;-80
2024/02/21 04:02:57;;;;;;;52.57;37.53;;;;;;;4.70;100.00;100931.09;1479525;87;21352;-80
2024/02/21 04:05:24;;;;;;;54.60;37.17;;;;;;;4.67;100.00;100933.91;1484941;87;21360;-80
2024/02/21 04:07:51;;;;;;;53.97;36.07;;;;;;;4.64;100.00;100927.55;1480776;87;21367;-79
2024/02/21 04:10:18;;;;;;;64.63;42.37;;;;;;;4.62;100.00;100930.72;1486464;87;21418;-80
2024/02/21 04:12:46;;;;;;;59.40;38.80;;;;;;;4.61;100.00;100927.74;1480513;87;21397;-81
2024/02/21 04:15:13;;;;;;;58.93;40.13;;;;;;;4.62;100.00;100934.66;1480442;87;21293;-81
2024/02/21 04:17:40;;;;;;;65.60;42.73;;;;;;;4.65;100.00;100939.70;1469648;87;21462;-81
2024/02/21 04:20:13;;;;;;;59.07;38.00;;;;;;;4.67;100.00;100940.46;1470113;88;21434;-80
2024/02/21 04:22:40;;;;;;;57.57;38.00;;;;;;;4.66;100.00;100936.13;1473644;87;21508;-80
2024/02/21 04:25:08;;;;;;;54.97;38.50;;;;;;;4.64;100.00;100942.80;1476016;88;22262;-80
2024/02/21 04:27:35;;;;;;;65.07;44.40;;;;;;;4.62;100.00;100947.30;1474098;87;21398;-81
2024/02/21 04:30:03;;;;;;;81.10;54.20;;;;;;;4.60;100.00;100947.85;1474212;87;21323;-80
2024/02/21 04:32:30;;;;;;;67.20;44.43;;;;;;;4.59;100.00;100945.34;1472966;88;21397;-80
2024/02/21 04:34:58;;;;;;;57.33;39.80;;;;;;;4.58;100.00;100943.20;1470607;87;21324;-81
2024/02/21 04:37:25;;;;;;;58.73;39.17;;;;;;;4.59;100.00;100941.41;1475690;88;21317;-80
2024/02/21 04:39:52;;;;;;;63.57;42.77;;;;;;;4.58;100.00;100946.29;1468956;87;21472;-80
2024/02/21 04:42:19;;;;;;;59.97;40.00;;;;;;;4.59;100.00;100947.96;1474965;88;21553;-80
2024/02/21 04:45:17;;;;;;;61.03;39.70;;;;;;;4.58;100.00;100952.84;1461971;87;21788;-80
2024/02/21 04:47:44;;;;;;;67.60;44.90;;;;;;;4.58;100.00;100950.22;1475875;88;21353;-80
2024/02/21 04:50:12;;;;;;;69.00;43.07;;;;;;;4.58;100.00;100958.09;1470888;88;21599;-80
2024/02/21 04:52:39;;;;;;;73.07;46.33;;;;;;;4.60;100.00;100956.19;1482798;87;21541;-80
2024/02/21 04:55:08;;;;;;;72.37;45.03;;;;;;;4.57;100.00;100957.22;1470486;87;21360;-80
2024/02/21 04:57:35;;;;;;;71.40;46.47;;;;;;;4.57;100.00;100955.91;1470091;87;21375;-80
2024/02/21 05:00:03;;;;;;;74.63;46.30;;;;;;;4.61;100.00;100954.80;1477311;87;21301;-80
2024/02/21 05:02:30;;;;;;;71.83;44.67;;;;;;;4.64;100.00;100957.70;1472633;88;21360;-81
2024/02/21 05:04:58;;;;;;;68.23;44.37;;;;;;;4.64;100.00;100957.70;1471641;87;22116;-79
2024/02/21 05:07:25;;;;;;;69.90;44.07;;;;;;;4.65;100.00;100958.06;1476872;88;21361;-79
2024/02/21 05:09:52;;;;;;;76.00;43.53;;;;;;;4.66;100.00;100951.87;1471539;87;21346;-80
2024/02/21 05:12:20;;;;;;;67.20;42.20;;;;;;;4.68;100.00;100959.17;1475113;87;21471;-80
2024/02/21 05:14:47;;;;;;;66.80;41.90;;;;;;;4.69;100.00;100960.84;1472223;88;21375;-80
2024/02/21 05:17:15;;;;;;;63.77;42.07;;;;;;;4.71;100.00;100954.57;1485606;87;21551;-79
2024/02/21 05:19:42;;;;;;;66.73;43.13;;;;;;;4.74;100.00;100958.78;1470424;88;21519;-80
2024/02/21 05:22:09;;;;;;;59.60;39.03;;;;;;;4.77;100.00;100961.21;1479353;87;21433;-80
2024/02/21 05:24:39;;;;;;;64.23;38.43;;;;;;;4.74;100.00;100964.86;1484191;88;21367;-80
2024/02/21 05:27:07;;;;;;;52.60;33.27;;;;;;;4.74;100.00;100960.09;1471962;88;21456;-78
2024/02/21 05:29:34;;;;;;;55.93;35.83;;;;;;;4.74;100.00;100962.72;1486454;87;21397;-79
2024/02/21 05:32:02;;;;;;;57.70;34.23;;;;;;;4.74;100.00;100961.41;1480164;87;21308;-80
2024/02/21 05:34:29;;;;;;;57.13;32.73;;;;;;;4.76;100.00;100963.47;1483997;87;21412;-80
2024/02/21 05:36:57;;;;;;;52.20;35.67;;;;;;;4.77;100.00;100966.45;1486463;87;21426;-80
2024/02/21 05:39:24;;;;;;;52.07;32.77;;;;;;;4.77;100.00;100965.14;1485200;87;21353;-80
2024/02/21 05:41:52;;;;;;;50.87;33.07;;;;;;;4.79;100.00;100965.90;1483973;87;21368;-79
2024/02/21 05:44:19;;;;;;;51.60;32.63;;;;;;;4.80;100.00;100966.73;1480912;87;21330;-80
2024/02/21 05:46:46;;;;;;;53.13;34.20;;;;;;;4.83;100.00;100975.72;1483279;87;22350;-80
2024/02/21 05:49:14;;;;;;;50.10;32.37;;;;;;;4.81;100.00;100970.58;1465862;88;21463;-79
2024/02/21 05:51:41;;;;;;;52.87;33.60;;;;;;;4.82;100.00;100969.64;1468353;88;21426;-80
2024/02/21 05:54:08;;;;;;;58.47;35.57;;;;;;;4.87;100.00;100977.22;1484055;87;21366;-79
2024/02/21 05:56:36;;;;;;;53.97;32.50;;;;;;;4.88;100.00;100978.42;1482285;87;21419;-80
2024/02/21 05:59:03;;;;;;;50.07;32.50;;;;;;;4.88;100.00;100977.11;1475211;88;21382;-80
2024/02/21 06:01:30;;;;;;;50.43;33.37;;;;;;;4.89;100.00;100981.44;1483993;88;21449;-79
2024/02/21 06:03:57;;;;;;;50.33;33.30;;;;;;;4.89;100.00;100981.44;1483397;87;21478;-79
2024/02/21 06:06:24;;;;;;;48.00;32.57;;;;;;;4.90;100.00;100982.27;1483477;87;21412;-80
2024/02/21 06:08:51;;;;;;;52.60;32.30;;;;;;;4.92;100.00;100981.23;1469605;88;21375;-80
2024/02/21 06:11:18;;;;;;;55.33;35.63;;;;;;;4.92;100.00;100975.99;1479549;87;21405;-80
2024/02/21 06:13:45;;;;;;;56.63;35.70;;;;;;;4.97;100.00;100980.92;1487949;87;21404;-80
2024/02/21 06:16:13;;;;;;;51.57;33.83;;;;;;;4.98;100.00;100980.01;1480641;87;21628;-80
2024/02/21 06:18:40;;;;;;;52.27;34.00;;;;;;;4.97;100.00;100981.77;1477252;88;21486;-80
2024/02/21 06:21:07;;;;;;;50.67;32.27;;;;;;;4.97;100.00;100980.92;1476140;88;21396;-79
2024/02/21 06:23:37;;;;;;;56.13;35.57;;;;;;;4.96;100.00;100981.41;1470914;87;21464;-80
2024/02/21 06:26:04;;;;;;;61.93;37.83;;;;;;;5.01;100.00;100980.28;1476930;87;21405;-80
2024/02/21 06:28:31;;;;;;;66.33;40.27;;;;;;;5.07;100.00;100987.28;1474967;87;21390;-80
2024/02/21 06:30:58;;;;;;;54.10;35.47;;;;;;;5.11;100.00;100993.17;1474818;87;21501;-79
2024/02/21 06:33:25;;;;;;;60.53;37.23;;;;;;;5.08;100.00;100991.58;1474220;87;21456;-80
2024/02/21 06:35:57;;;;;;;56.17;35.83;;;;;;;5.06;100.00;100995.23;1465369;88;22131;-80
2024/02/21 06:38:21;;;;;;;56.63;34.20;;;;;;;5.07;100.00;101000.88;1475523;87;21417;-79
2024/02/21 06:40:51;;;;;;;57.90;36.00;;;;;;;5.08;100.00;101003.86;1477510;87;22366;-80
2024/02/21 06:43:20;;;;;;;53.97;31.60;;;;;;;5.11;100.00;101008.91;1474678;88;21500;-78
2024/02/21 06:45:54;;;;;;;55.57;34.77;;;;;;;5.07;100.00;101005.65;1469396;87;21367;-80
2024/02/21 06:48:21;;;;;;;51.47;32.10;;;;;;;5.13;100.00;101005.73;1477530;87;21589;-79
2024/02/21 06:50:48;;;;;;;50.40;32.70;;;;;;;5.18;100.00;101008.91;1471534;87;21486;-80
2024/02/21 06:53:15;;;;;;;51.27;33.50;;;;;;;5.22;100.00;101007.75;1471934;87;22403;-80
2024/02/21 06:55:42;;;;;;;48.30;32.00;;;;;;;5.29;100.00;101003.77;1470262;87;21449;-80
2024/02/21 06:58:11;;;;;;;54.57;33.83;;;;;;;5.33;100.00;101009.22;1471403;87;21309;-80
2024/02/21 07:00:40;;;;;;;46.70;31.43;;;;;;;5.37;100.00;101010.69;1467013;87;21383;-80
2024/02/21 07:03:07;;;;;;;49.00;32.87;;;;;;;5.40;100.00;101014.42;1458771;87;21478;-80
2024/02/21 07:05:39;;;;;;;47.77;31.63;;;;;;;5.47;100.00;101015.33;1465680;88;21464;-80
2024/02/21 07:08:11;;;;;;;45.27;28.23;;;;;;;5.51;100.00;101017.67;1469055;87;21486;-80
2024/02/21 07:10:42;;;;;;;48.43;30.27;;;;;;;5.49;100.00;101018.23;1473649;87;22196;-81
2024/02/21 07:13:09;;;;;;;43.20;27.73;;;;;;;5.57;100.00;101021.20;1472543;87;21551;-81
2024/02/21 07:15:37;;;;;;;44.93;28.90;;;;;;;5.58;100.00;101020.72;1474001;88;21353;-80
2024/02/21 07:18:04;;;;;;;41.83;27.40;;;;;;;5.62;100.00;101026.16;1480232;87;21514;-81
2024/02/21 07:20:33;;;;;;;46.33;29.57;;;;;;;5.67;100.00;101028.02;1482605;87;21426;-80
2024/02/21 07:23:02;;;;;;;37.87;25.07;;;;;;;5.73;100.00;101024.98;1480903;88;21382;-81
2024/02/21 07:25:29;;;;;;;39.07;26.27;;;;;;;5.76;100.00;101019.52;1458450;88;22335;-81
2024/02/21 07:27:56;;;;;;;41.93;27.73;;;;;;;5.82;100.00;101030.09;1485112;88;21359;-81
2024/02/21 07:30:23;;;;;;;41.90;25.93;;;;;;;5.87;100.00;101018.34;1480432;87;21397;-80
2024/02/21 07:32:51;;;;;;;33.33;22.40;;;;;;;5.95;100.00;101024.88;1477100;87;21360;-80
2024/02/21 07:35:18;;;;;;;32.53;21.60;;;;;;;6.01;100.00;101030.59;1482113;87;21412;-81
2024/02/21 07:37:45;;;;;;;29.17;19.77;;;;;;;6.06;100.00;101030.25;1481206;87;21549;-80
2024/02/21 07:40:15;;;;;;;34.47;20.03;;;;;;;6.10;100.00;101029.13;1489990;87;21346;-80
2024/02/21 07:42:43;;;;;;;34.75;21.23;;;;;;;6.15;100.00;101029.63;1480958;87;21611;-79
2024/02/21 07:45:11;;;;;;;31.40;20.27;;;;;;;6.21;100.00;101033.63;1486826;87;21382;-80
2024/02/21 07:47:38;;;;;;;30.50;18.70;;;;;;;6.20;100.00;101030.16;1482966;87;21449;-81
2024/02/21 07:50:07;;;;;;;34.13;20.87;;;;;;;6.24;100.00;101032.10;1476590;87;22402;-80
2024/02/21 07:52:34;;;;;;;30.47;19.87;;;;;;;6.28;100.00;101034.42;1482911;87;21382;-80
2024/02/21 07:55:02;;;;;;;36.83;23.03;;;;;;;6.29;100.00;101033.47;1483046;87;21389;-80
2024/02/21 07:57:29;;;;;;;29.80;20.13;;;;;;;6.32;100.00;101036.36;1493860;87;22291;-80
2024/02/21 07:59:56;;;;;;;29.37;18.63;;;;;;;6.31;100.00;101038.16;1487841;88;22462;-80
2024/02/21 08:02:23;;;;;;;31.80;20.27;;;;;;;6.28;100.00;101031.80;1481597;87;21552;-79
2024/02/21 08:04:50;;;;;;;30.97;20.87;;;;;;;6.26;100.00;101030.22;1485473;88;21515;-80
2024/02/21 08:07:21;;;;;;;28.43;19.20;;;;;;;6.25;100.00;101034.64;1473546;87;22409;-80
2024/02/21 08:09:48;;;;;;;31.37;21.50;;;;;;;6.19;100.00;101035.54;1481277;87;21382;-80
2024/02/21 08:12:15;;;;;;;33.07;21.47;;;;;;;6.28;100.00;101033.11;1483358;88;22402;-78
2024/02/21 08:14:43;;;;;;;35.53;20.93;;;;;;;6.33;100.00;101033.64;1487663;87;21359;-79
2024/02/21 08:17:10;;;;;;;35.17;22.50;;;;;;;6.26;100.00;101032.37;1486253;87;21353;-80
2024/02/21 08:19:37;;;;;;;34.77;21.47;;;;;;;6.39;100.00;101035.02;1483377;87;22462;-80
2024/02/21 08:22:04;;;;;;;35.57;20.60;;;;;;;6.38;100.00;101024.11;1479430;87;21367;-80
2024/02/21 08:24:31;;;;;;;30.20;19.93;;;;;;;6.48;100.00;101024.33;1485941;87;21426;-79
2024/02/21 08:26:58;;;;;;;37.47;25.43;;;;;;;6.55;100.00;101026.41;1482670;87;21558;-78
2024/02/21 08:29:25;;;;;;;28.43;18.17;;;;;;;6.67;100.00;101023.87;1486663;87;21426;-79
2024/02/21 08:31:54;;;;;;;31.63;20.63;;;;;;;6.71;100.00;101018.30;1487909;87;21374;-84
2024/02/21 08:34:21;;;;;;;29.60;19.77;;;;;;;6.72;100.00;101009.92;1466867;88;21419;-79
2024/02/21 08:36:48;;;;;;;28.37;18.80;;;;;;;6.82;100.00;101019.31;1485404;87;21360;-79
2024/02/21 08:39:16;;;;;;;33.77;21.60;;;;;;;6.84;100.00;101020.05;1485674;87;22291;-79
2024/02/21 08:41:43;;;;;;;29.53;19.80;;;;;;;6.92;100.00;101011.14;1487007;87;21353;-80
2024/02/21 08:44:11;;;;;;;26.50;17.13;;;;;;;7.03;100.00;101013.84;1478086;87;21493;-80
2024/02/21 08:46:40;;;;;;;30.73;17.77;;;;;;;7.04;100.00;101022.58;1486609;87;21448;-79
2024/02/21 08:49:07;;;;;;;24.63;16.13;;;;;;;7.04;100.00;101014.20;1476083;87;21426;-79
2024/02/21 08:51:35;;;;;;;26.53;17.20;;;;;;;7.01;100.00;101019.69;1487639;88;21456;-80
2024/02/21 08:54:02;;;;;;;24.80;15.03;;;;;;;7.08;100.00;101014.81;1485641;87;21367;-80
2024/02/21 08:56:31;;;;;;;24.77;15.97;;;;;;;7.09;100.00;101017.34;1483083;87;22255;-79
2024/02/21 08:58:58;;;;;;;28.10;17.37;;;;;;;7.22;100.00;101019.92;1482367;87;21508;-79
2024/02/21 09:01:26;;;;;;;22.43;15.00;;;;;;;7.30;100.00;101020.69;1482894;87;21360;-79
2024/02/21 09:03:54;;;;;;;25.07;15.80;;;;;;;7.30;100.00;101028.59;1482545;87;21374;-79
2024/02/21 09:06:21;;;;;;;23.63;16.73;;;;;;;7.35;100.00;101029.09;1482279;87;22262;-79
2024/02/21 09:08:49;;;;;;;20.73;13.57;;;;;;;7.43;100.00;101021.00;1467454;88;21397;-80
2024/02/21 09:11:16;;;;;;;26.23;15.43;;;;;;;7.51;100.00;101025.71;1439656;87;21380;-79
2024/02/21 09:13:43;;;;;;;21.00;14.20;;;;;;;7.55;100.00;101023.20;1487266;87;22306;-79
2024/02/21 09:16:10;;;;;;;21.43;14.57;;;;;;;7.62;100.00;101025.77;1481397;87;21359;-79
2024/02/21 09:18:37;;;;;;;22.20;14.53;;;;;;;7.73;100.00;101034.16;1475838;87;21463;-79
2024/02/21 09:21:05;;;;;;;37.10;20.83;;;;;;;7.85;100.00;101024.05;1483664;87;21454;-79
2024/02/21 09:23:32;;;;;;;31.27;19.30;;;;;;;7.98;100.00;101031.85;1486682;88;21403;-79
2024/02/21 09:26:03;;;;;;;22.97;14.13;;;;;;;8.10;100.00;101032.72;1482574;87;21867;-79
2024/02/21 09:28:28;;;;;;;20.73;14.57;;;;;;;8.16;100.00;101032.24;1531337;88;21416;-79
2024/02/21 09:30:55;;;;;;;19.93;11.83;;;;;;;8.25;100.00;101029.38;1481197;87;21389;-78
2024/02/21 09:33:22;;;;;;;24.67;15.40;;;;;;;8.29;100.00;101027.72;1481579;88;22209;-79
2024/02/21 09:35:49;;;;;;;16.60;11.40;;;;;;;8.43;100.00;101024.05;1482616;87;21382;-80
2024/02/21 09:38:16;;;;;;;19.93;13.07;;;;;;;8.43;100.00;101026.69;1480522;87;21382;-79
2024/02/21 09:40:44;;;;;;;17.63;11.63;;;;;;;8.42;100.00;101019.72;1478431;87;21455;-78
2024/02/21 09:43:11;;;;;;;19.23;12.90;;;;;;;8.39;100.00;101021.27;1490640;88;22335;-78
2024/02/21 09:45:40;;;;;;;20.97;14.07;;;;;;;8.46;100.00;101018.98;1477193;87;21397;-79
2024/02/21 09:48:25;;;;;;;17.67;11.53;;;;;;;8.69;100.00;101026.42;1485799;88;22240;-79
2024/02/21 09:50:55;;;;;;;16.27;11.50;;;;;;;9.63;100.00;101027.65;1486191;87;21367;-79
2024/02/21 09:53:25;;;;;;;16.73;11.93;;;;;;;10.68;100.00;101019.19;1482875;87;21315;-80
2024/02/21 09:55:53;;;;;;;14.03;10.00;;;;;;;11.54;100.00;101023.48;1422406;88;22423;-79
2024/02/21 09:58:21;;;;;;;15.70;10.70;;;;;;;12.11;100.00;101016.47;1483668;87;22305;-80
2024/02/21 10:00:48;;;;;;;11.80;9.23;;;;;;;12.65;100.00;101012.71;1485309;87;22014;-80
2024/02/21 10:03:15;;;;;;;14.13;10.17;;;;;;;12.94;100.00;101016.54;1484090;88;21441;-81
2024/02/21 10:05:50;;;;;;;13.30;10.40;;;;;;;13.13;100.00;101010.78;1487079;88;22107;-81
2024/02/21 10:08:19;;;;;;;14.63;10.47;;;;;;;13.06;100.00;101011.39;1487254;87;21495;-80
2024/02/21 10:10:47;;;;;;;12.20;8.60;;;;;;;13.09;100.00;101010.25;1483843;88;22307;-80
2024/02/21 10:13:30;;;;;;;11.07;8.03;;;;;;;13.13;100.00;101006.80;1488704;87;21425;-80
2024/02/21 10:16:07;;;;;;;11.63;7.80;;;;;;;12.53;100.00;101008.08;1484414;87;21935;-80
2024/02/21 10:18:35;;;;;;;9.50;6.90;;;;;;;12.52;100.00;101009.08;1481173;88;21953;-80
2024/02/21 10:21:07;;;;;;;11.90;8.23;;;;;;;12.13;100.00;101007.86;1475603;88;21397;-80
2024/02/21 10:23:51;;;;;;;10.90;8.20;;;;;;;11.97;100.00;101007.63;1424006;87;21492;-80
2024/02/21 10:26:20;;;;;;;11.33;8.40;;;;;;;11.84;100.00;101009.21;1484667;87;21484;-79
2024/02/21 10:28:51;;;;;;;11.83;9.77;;;;;;;11.78;100.00;101002.32;1483967;87;21375;-80
2024/02/21 10:31:25;;;;;;;14.07;10.57;;;;;;;11.62;100.00;101004.20;1490193;88;21620;-80
2024/02/21 10:34:03;;;;;;;12.50;9.50;;;;;;;11.44;100.00;101001.42;1451107;88;21390;-80
2024/02/21 10:36:30;;;;;;;16.30;10.50;;;;;;;11.35;100.00;100992.98;1486368;88;21353;-79
2024/02/21 10:38:57;;;;;;;13.57;9.50;;;;;;;11.27;100.00;100993.17;1480807;88;21271;-80
2024/02/21 10:41:26;;;;;;;14.17;9.57;;;;;;;11.23;100.00;100994.44;1485022;88;21419;-80
2024/02/21 10:43:55;;;;;;;13.03;9.80;;;;;;;11.13;100.00;100993.57;1482278;87;21352;-76
2024/02/21 10:46:30;;;;;;;13.40;9.43;;;;;;;11.00;100.00;100989.04;1482878;87;21374;-78
2024/02/21 10:49:15;;;;;;;;;;;;;;;10.83;100.00;100984.74;1414435;88;21337;-77
2024/02/21 10:51:45;;;;;;;13.73;9.63;;;;;;;10.65;100.00;100991.67;1481617;87;20482;-77
2024/02/21 10:54:18;;;;;;;14.93;9.63;;;;;;;10.48;100.00;100991.81;1483285;88;22637;-77
2024/02/21 10:56:47;;;;;;;14.17;9.70;;;;;;;10.36;100.00;100984.45;1486408;88;21389;-77
2024/02/21 10:59:17;;;;;;;13.97;9.17;;;;;;;10.31;100.00;100972.09;1468895;88;21433;-78
2024/02/21 11:01:44;;;;;;;13.30;9.20;;;;;;;10.32;100.00;100969.80;1483763;88;22253;-78
2024/02/21 11:04:14;;;;;;;14.43;9.77;;;;;;;10.33;100.00;100964.88;1482866;88;21411;-77
2024/02/21 11:06:42;;;;;;;13.48;9.85;;;;;;;10.33;100.00;100967.52;1479425;87;21433;-78
2024/02/21 11:09:11;;;;;;;16.83;9.57;;;;;;;10.27;100.00;100961.44;1478238;87;21375;-77
2024/02/21 11:11:41;;;;;;;12.50;8.37;;;;;;;10.20;100.00;100954.95;1474546;87;21515;-77
2024/02/21 11:14:21;;;;;;;12.95;9.23;;;;;;;10.13;100.00;100959.11;1483413;87;21797;-77